Boothville Information

FAA: LNQ - ICAO: KLNQ

Boothville (Heliport) Location

State Louisiana
County Plaquemines
City Boothville
Boothville (Heliport) is 1 mile southwest of Boothville, LA.
Latitude 29-21-14.9040N
Longitude 089-26-09.2760W
Elevation 3ft

Boothville METARs

METAR KLNQ 172055Z AUTO 22008KT 10SM CLR 32/23 A3000 RMK AO2 T03170227
Altimeter 30.00"
Temperature 31.7°C (89.1°F)
Wind 220° at 8KT
Clouds Skies are clear.
Visibility 10.0mi
Time observed: 2022-05-17T20:55:00Z

Boothville (Heliport) Details

Status Operational
Activation July 1998
Ownership Private
Usage Private
Chart NEW ORLEANS
ATC on-site No
Beacon schedule N/A
Beacon color N/A

Boothville (Heliport) Contacts

Owner PHI AVIATION LLC
Owner address 38963 HWY 23, BOOTHVILLE, LA 70038
Owner phone 504-534-2631
Manager CHRISTOPHER WANT
Manager address 6310 SELF ROAD, BELCHER, LA 71004
Manager phone (508) 579-9548

Boothville Radio Frequencies

Boothville (Heliport) Radio Frequencies

UNICOM 122.975
Common traffic advisory frequency (CTAF) N/A